Time;durP1;ratioP1;P1;durP2;ratioP2;P2;SDS_P1;SDS_P2;PMS_P1;PMS_P2;Temp;Humidity;BMP_temperature;BMP_pressure;BME280_temperature;BME280_humidity;BME280_pressure;Samples;Min_cycle;Max_cycle;Signal;HPM_P1;HPM_P2
2021/04/21 00:00:06;;;;;;;20.48;13.63;;;9.90;99.90;;;;;;5018863;28;20032;-64
2021/04/21 00:02:33;;;;;;;22.13;14.75;;;9.80;99.90;;;;;;5006889;28;20136;-65
2021/04/21 00:04:59;;;;;;;22.83;15.10;;;9.80;99.90;;;;;;5000073;28;20029;-64
2021/04/21 00:07:26;;;;;;;25.10;16.52;;;9.80;99.90;;;;;;5002555;28;20403;-62
2021/04/21 00:09:57;;;;;;;24.38;17.00;;;9.70;99.90;;;;;;5006546;28;20018;-65
2021/04/21 00:12:24;;;;;;;25.38;16.83;;;9.70;99.90;;;;;;5016359;28;20034;-63
2021/04/21 00:14:52;;;;;;;31.45;18.45;;;9.60;99.90;;;;;;5017677;28;20041;-64
2021/04/21 00:17:20;;;;;;;30.65;18.67;;;9.60;99.90;;;;;;4977698;28;20034;-63
2021/04/21 00:19:46;;;;;;;27.45;18.65;;;9.50;99.90;;;;;;4990983;28;20136;-63
2021/04/21 00:22:16;;;;;;;26.80;18.83;;;9.50;99.90;;;;;;4990761;28;20018;-64
2021/04/21 00:24:43;;;;;;;26.38;19.30;;;9.40;99.90;;;;;;4991600;28;20022;-65
2021/04/21 00:27:09;;;;;;;29.55;20.17;;;9.40;99.90;;;;;;4994025;28;20105;-63
2021/04/21 00:29:39;;;;;;;34.70;19.60;;;9.30;99.90;;;;;;4997212;28;20035;-59
2021/04/21 00:32:05;;;;;;;34.85;20.70;;;9.30;99.90;;;;;;4997179;28;20033;-63
2021/04/21 00:34:32;;;;;;;27.23;19.65;;;9.20;99.90;;;;;;4986862;28;20113;-64
2021/04/21 00:36:59;;;;;;;30.48;21.15;;;9.20;99.90;;;;;;4996339;28;20460;-63
2021/04/21 00:39:25;;;;;;;32.38;20.58;;;9.10;99.90;;;;;;4998649;28;20053;-64
2021/04/21 00:42:19;;;;;;;28.13;19.95;;;9.00;99.90;;;;;;4997377;28;20109;-63
2021/04/21 00:45:15;;;;;;;30.77;19.55;;;9.00;99.90;;;;;;5000300;28;20033;-64
2021/04/21 00:48:15;;;;;;;31.52;21.50;;;8.90;99.90;;;;;;4948859;28;20044;-64
2021/04/21 00:51:11;;;;;;;30.33;20.63;;;8.80;99.90;;;;;;4986883;28;20027;-65
2021/04/21 00:54:03;;;;;;;32.10;21.40;;;8.80;99.90;;;;;;4993881;28;20446;-65
2021/04/21 00:56:57;;;;;;;32.63;21.95;;;8.70;99.90;;;;;;4994600;28;20084;-63
2021/04/21 01:00:05;;;;;;;30.02;22.00;;;8.60;99.90;;;;;;4952129;28;20077;-63
2021/04/21 01:02:53;;;;;;;29.20;21.58;;;8.60;99.90;;;;;;4986523;28;20035;-65
2021/04/21 01:05:54;;;;;;;32.10;22.08;;;8.40;99.90;;;;;;4987995;28;20114;-65
2021/04/21 01:08:40;;;;;;;34.67;22.85;;;8.50;99.90;;;;;;4963101;28;20035;-63
2021/04/21 01:11:48;;;;;;;38.17;24.02;;;8.40;99.90;;;;;;4987249;28;20393;-65
2021/04/21 01:14:23;;;;;;;40.83;24.48;;;8.30;99.90;;;;;;5006747;28;20502;-64
2021/04/21 01:17:12;;;;;;;37.45;24.42;;;8.30;99.90;;;;;;4988733;28;20121;-64
2021/04/21 01:20:03;;;;;;;43.83;25.15;;;8.20;99.90;;;;;;4975952;28;20066;-65
2021/04/21 01:23:02;;;;;;;39.72;25.08;;;8.10;99.90;;;;;;4989492;28;20086;-68
2021/04/21 01:26:15;;;;;;;34.40;23.38;;;8.10;99.90;;;;;;4982514;28;20053;-66
2021/04/21 01:28:51;;;;;;;38.80;24.90;;;8.00;99.90;;;;;;4989496;28;20077;-65
2021/04/21 01:31:46;;;;;;;35.58;23.48;;;7.90;99.90;;;;;;5009573;28;20080;-66
2021/04/21 01:34:22;;;;;;;37.13;23.35;;;7.90;99.90;;;;;;4994251;28;20557;-65
2021/04/21 01:36:54;;;;;;;36.75;24.60;;;7.90;99.90;;;;;;4994586;28;20046;-64
2021/04/21 01:39:32;;;;;;;43.22;25.83;;;7.80;99.90;;;;;;5001648;28;20030;-65
2021/04/21 01:42:10;;;;;;;38.67;26.13;;;7.80;99.90;;;;;;4992663;28;20116;-64
2021/04/21 01:44:45;;;;;;;36.65;24.73;;;7.80;99.90;;;;;;4988319;28;20058;-64
2021/04/21 01:47:19;;;;;;;42.25;25.70;;;7.70;99.90;;;;;;4988530;28;20619;-65
2021/04/21 01:49:47;;;;;;;40.13;26.33;;;7.70;99.90;;;;;;4990892;28;20026;-65
2021/04/21 01:52:43;;;;;;;38.90;24.85;;;7.70;99.90;;;;;;4993889;28;20034;-64
2021/04/21 01:55:22;;;;;;;39.33;25.25;;;7.70;99.90;;;;;;4996047;28;20100;-65
2021/04/21 01:58:14;;;;;;;38.85;26.13;;;7.60;99.90;;;;;;4997717;28;20038;-64
2021/04/21 02:00:51;;;;;;;43.03;25.13;;;7.60;99.90;;;;;;4989358;28;20125;-65
2021/04/21 02:03:26;;;;;;;39.20;26.73;;;7.50;99.90;;;;;;4989254;28;20045;-64
2021/04/21 02:06:32;;;;;;;46.33;28.08;;;7.40;99.90;;;;;;4992811;28;20044;-64
2021/04/21 02:09:13;;;;;;;37.97;27.33;;;7.30;99.90;;;;;;4995891;28;20503;-64
2021/04/21 02:12:26;;;;;;;43.08;29.63;;;7.30;99.90;;;;;;4991900;28;20038;-65
2021/04/21 02:15:29;;;;;;;46.67;29.05;;;7.30;99.90;;;;;;4988261;28;20030;-61
2021/04/21 02:18:56;;;;;;;46.05;30.73;;;7.30;99.90;;;;;;4987865;28;20054;-64
2021/04/21 02:21:35;;;;;;;43.85;28.65;;;7.40;99.90;;;;;;4941478;28;20061;-65
2021/04/21 02:24:39;;;;;;;47.47;30.27;;;7.40;99.90;;;;;;4998429;28;20457;-65
2021/04/21 02:27:25;;;;;;;46.23;30.97;;;7.40;99.90;;;;;;4983572;28;20816;-65
2021/04/21 02:30:09;;;;;;;45.90;30.13;;;7.40;99.90;;;;;;4993317;28;20292;-64
2021/04/21 02:33:13;;;;;;;43.75;29.17;;;7.30;99.90;;;;;;4977255;28;20039;-64
2021/04/21 02:35:52;;;;;;;43.43;28.40;;;7.30;99.90;;;;;;4982919;28;20684;-64
2021/04/21 02:38:52;;;;;;;44.88;29.77;;;7.20;99.90;;;;;;4986899;28;20034;-64
2021/04/21 02:41:42;;;;;;;48.70;30.60;;;7.20;99.90;;;;;;4985117;28;20077;-65
2021/04/21 02:44:46;;;;;;;48.08;31.13;;;7.10;99.90;;;;;;5004224;28;20073;-63
2021/04/21 02:47:23;;;;;;;45.85;30.17;;;7.00;99.90;;;;;;4986859;28;20069;-65
2021/04/21 02:53:05;;;;;;;48.88;31.92;;;6.90;99.90;;;;;;4983941;28;20101;-64
2021/04/21 02:56:08;;;;;;;50.92;32.13;;;6.80;99.90;;;;;;4999406;28;20034;-64
2021/04/21 02:59:15;;;;;;;50.28;31.48;;;6.80;99.90;;;;;;4977974;28;20030;-63
2021/04/21 03:02:14;;;;;;;53.85;32.42;;;6.80;99.90;;;;;;4989854;28;20041;-65
2021/04/21 03:05:13;;;;;;;53.53;32.88;;;6.80;99.90;;;;;;4986470;28;20045;-64
2021/04/21 03:08:03;;;;;;;48.53;31.80;;;6.70;99.90;;;;;;5002659;28;20035;-64
2021/04/21 03:10:42;;;;;;;49.28;32.50;;;6.70;99.90;;;;;;4982345;28;20039;-65
2021/04/21 03:13:27;;;;;;;55.38;33.67;;;6.80;99.90;;;;;;4987175;28;20062;-65
2021/04/21 03:16:00;;;;;;;55.20;32.17;;;6.80;99.90;;;;;;4987921;28;20037;-63
2021/04/21 03:18:31;;;;;;;51.38;32.70;;;6.80;99.90;;;;;;4994709;28;20038;-64
2021/04/21 03:21:25;;;;;;;43.50;29.88;;;6.80;99.90;;;;;;4985768;28;20037;-66
2021/04/21 03:23:59;;;;;;;49.42;30.67;;;6.80;99.90;;;;;;4982083;28;20488;-65
2021/04/21 03:26:33;;;;;;;45.97;30.30;;;6.80;99.90;;;;;;4994082;28;20029;-64
2021/04/21 03:29:29;;;;;;;43.38;29.02;;;6.80;99.90;;;;;;4985205;28;20022;-64
2021/04/21 03:32:02;;;;;;;52.83;31.42;;;6.80;99.90;;;;;;4981752;28;20069;-66
2021/04/21 03:34:33;;;;;;;47.97;30.02;;;6.80;99.90;;;;;;4986466;28;20464;-65
2021/04/21 03:37:02;;;;;;;48.75;31.90;;;6.80;99.90;;;;;;4985583;28;20039;-65
2021/04/21 03:39:37;;;;;;;57.67;32.35;;;6.80;99.90;;;;;;4967070;28;20077;-65
2021/04/21 03:42:08;;;;;;;48.70;32.90;;;6.80;99.90;;;;;;4981399;28;20023;-65
2021/04/21 03:44:43;;;;;;;51.03;32.20;;;6.90;99.90;;;;;;4985628;28;20038;-65
2021/04/21 03:47:17;;;;;;;56.13;33.63;;;6.90;99.90;;;;;;4971862;28;20030;-66
2021/04/21 03:49:43;;;;;;;61.55;35.83;;;6.90;99.90;;;;;;5000426;28;20652;-64
2021/04/21 03:52:19;;;;;;;53.85;33.47;;;6.90;99.90;;;;;;4972528;28;20038;-64
2021/04/21 03:54:58;;;;;;;52.70;34.03;;;6.90;99.90;;;;;;4989239;28;20018;-64
2021/04/21 03:57:36;;;;;;;55.10;35.50;;;6.80;99.90;;;;;;4992463;28;20403;-64
2021/04/21 04:00:05;;;;;;;60.15;36.97;;;6.90;99.90;;;;;;4985845;28;20504;-65
2021/04/21 04:02:50;;;;;;;56.55;37.10;;;6.90;99.90;;;;;;4986649;28;20118;-65
2021/04/21 04:05:26;;;;;;;57.08;37.22;;;6.90;99.90;;;;;;4995598;28;20057;-66
2021/04/21 04:08:10;;;;;;;60.15;37.38;;;6.90;99.90;;;;;;4997408;28;20033;-65
2021/04/21 04:10:40;;;;;;;61.40;37.13;;;7.00;99.90;;;;;;4994688;28;20056;-63
2021/04/21 04:13:13;;;;;;;61.58;36.70;;;7.00;99.90;;;;;;4999721;28;20073;-65
2021/04/21 04:15:54;;;;;;;53.38;34.97;;;7.00;99.90;;;;;;4985645;28;20454;-64
2021/04/21 04:18:44;;;;;;;54.38;35.70;;;7.00;99.90;;;;;;4990383;28;20495;-65
2021/04/21 04:21:20;;;;;;;55.97;35.13;;;7.00;99.90;;;;;;4991143;28;20049;-65
2021/04/21 04:23:59;;;;;;;50.33;34.85;;;7.00;99.90;;;;;;4987305;28;20050;-65
2021/04/21 04:26:49;;;;;;;48.35;33.33;;;7.10;99.90;;;;;;4999890;28;20041;-65
2021/04/21 04:29:22;;;;;;;50.92;32.28;;;7.10;99.90;;;;;;4989236;28;20031;-65
2021/04/21 04:32:03;;;;;;;54.13;34.45;;;7.10;99.90;;;;;;4991250;28;20038;-65
2021/04/21 04:34:38;;;;;;;47.90;32.80;;;7.10;99.90;;;;;;4997232;28;20034;-65
2021/04/21 04:37:04;;;;;;;52.92;31.70;;;7.10;99.90;;;;;;5000282;28;20077;-64
2021/04/21 04:39:39;;;;;;;53.40;35.53;;;7.10;99.90;;;;;;4990202;28;20658;-66
2021/04/21 04:42:31;;;;;;;44.20;29.80;;;7.20;99.90;;;;;;4990402;28;20040;-64
2021/04/21 04:45:16;;;;;;;43.25;27.23;;;7.10;99.90;;;;;;4988153;28;20064;-64
2021/04/21 04:47:58;;;;;;;39.90;28.50;;;7.20;99.90;;;;;;4977528;28;20065;-65
2021/04/21 04:50:27;;;;;;;45.03;29.23;;;7.30;99.90;;;;;;4996764;28;20041;-65
2021/04/21 04:53:04;;;;;;;47.35;31.75;;;7.30;99.90;;;;;;4989293;28;20041;-65
2021/04/21 04:55:38;;;;;;;53.55;28.98;;;7.30;99.90;;;;;;4991280;28;20035;-65
2021/04/21 04:58:07;;;;;;;;;;;7.40;99.90;;;;;;4998584;28;20073;-65
2021/04/21 05:00:37;;;;;;;50.53;33.00;;;7.50;99.90;;;;;;4990977;28;19914;-64
2021/04/21 05:03:45;;;;;;;56.95;35.15;;;7.50;99.90;;;;;;5001680;28;20695;-64
2021/04/21 05:06:45;;;;;;;52.90;35.30;;;7.70;99.90;;;;;;4993775;28;20030;-66
2021/04/21 05:09:21;;;;;;;58.33;36.25;;;7.80;99.90;;;;;;4979796;28;20026;-64
2021/04/21 05:11:58;;;;;;;46.35;29.55;;;7.90;99.90;;;;;;4976768;28;20778;-65
2021/04/21 05:14:28;;;;;;;41.80;26.55;;;8.00;99.90;;;;;;4974037;28;20038;-62
2021/04/21 05:17:12;;;;;;;37.20;27.20;;;8.10;99.90;;;;;;4997983;28;20026;-64
2021/04/21 05:20:07;;;;;;;45.47;28.05;;;8.10;99.90;;;;;;4991533;28;20069;-65
2021/04/21 05:22:54;;;;;;;44.45;30.65;;;8.30;99.90;;;;;;5009824;28;20126;-65
2021/04/21 05:25:57;;;;;;;48.42;31.35;;;8.50;99.90;;;;;;4992359;28;20400;-65
2021/04/21 05:29:05;;;;;;;31.75;22.38;;;8.60;99.90;;;;;;4996968;28;20085;-64
2021/04/21 05:31:58;;;;;;;29.40;20.88;;;8.90;99.90;;;;;;4989832;28;20034;-65
2021/04/21 05:38:11;;;;;;;33.67;23.58;;;9.50;99.90;;;;;;5000601;28;20041;-65
2021/04/21 05:41:00;;;;;;;32.08;22.48;;;10.20;99.90;;;;;;5005626;28;20069;-65
2021/04/21 05:43:57;;;;;;;30.55;21.85;;;11.00;99.90;;;;;;4988532;28;20644;-65
2021/04/21 05:46:52;;;;;;;32.20;21.15;;;11.50;99.90;;;;;;4987247;28;20464;-65
2021/04/21 05:49:39;;;;;;;28.50;21.23;;;12.00;99.90;;;;;;4999853;28;20041;-64
2021/04/21 05:52:34;;;;;;;32.22;23.45;;;12.40;99.90;;;;;;4990231;28;20038;-65
2021/04/21 05:55:40;;;;;;;28.50;21.38;;;12.50;99.90;;;;;;4994727;28;20030;-63
2021/04/21 05:58:53;;;;;;;29.30;20.52;;;12.30;99.90;;;;;;4973593;28;20561;-65
2021/04/21 06:01:34;;;;;;;28.73;20.38;;;12.10;99.90;;;;;;4947471;28;20472;-64
2021/04/21 06:04:00;;;;;;;23.58;18.77;;;11.80;99.90;;;;;;4997133;28;20053;-66
2021/04/21 06:06:34;;;;;;;33.58;24.45;;;11.80;99.90;;;;;;4995908;28;20034;-65
2021/04/21 06:09:16;;;;;;;38.85;27.05;;;11.70;99.90;;;;;;4990608;28;20104;-64
2021/04/21 06:11:50;;;;;;;41.40;28.38;;;11.20;99.90;;;;;;4993899;28;20040;-65
2021/04/21 06:14:21;;;;;;;32.88;23.88;;;11.10;99.90;;;;;;4988449;28;20064;-66
2021/04/21 06:16:55;;;;;;;34.40;22.67;;;10.70;99.90;;;;;;4993281;28;20033;-64
2021/04/21 06:19:30;;;;;;;;;;;10.90;99.90;;;;;;4992442;28;20049;-66
2021/04/21 06:21:56;;;;;;;35.88;24.77;;;10.50;99.90;;;;;;5003124;28;19921;-65
2021/04/21 06:24:30;;;;;;;34.55;24.95;;;10.30;99.90;;;;;;4996572;28;20037;-65
2021/04/21 06:27:16;;;;;;;38.20;27.25;;;10.20;99.90;;;;;;5000271;28;20049;-64
2021/04/21 06:29:47;;;;;;;33.60;24.00;;;10.30;99.90;;;;;;4990279;28;20555;-66
2021/04/21 06:32:32;;;;;;;33.95;25.08;;;10.20;99.90;;;;;;4979925;28;20049;-64
2021/04/21 06:35:13;;;;;;;48.47;30.42;;;10.00;99.90;;;;;;4987357;28;20535;-64
2021/04/21 06:37:47;;;;;;;48.47;33.13;;;9.90;99.90;;;;;;5000991;28;20041;-64
2021/04/21 06:40:13;;;;;;;48.20;33.90;;;9.80;99.90;;;;;;4995062;28;20033;-66
2021/04/21 06:42:46;;;;;;;50.53;33.45;;;9.70;99.90;;;;;;4991773;28;20399;-66
2021/04/21 06:45:50;;;;;;;49.42;32.45;;;9.60;99.90;;;;;;4981806;28;20081;-64
2021/04/21 06:48:26;;;;;;;50.60;36.35;;;9.40;99.90;;;;;;4941793;28;20070;-65
2021/04/21 06:51:13;;;;;;;51.60;33.75;;;9.30;99.90;;;;;;4980074;28;20109;-64
2021/04/21 06:53:55;;;;;;;56.53;37.13;;;9.20;99.90;;;;;;4985067;28;20031;-65
2021/04/21 06:56:32;;;;;;;53.17;36.40;;;9.10;99.90;;;;;;4960153;28;20066;-66
2021/04/21 06:59:02;;;;;;;54.30;38.25;;;9.00;99.90;;;;;;4986208;28;20468;-64
2021/04/21 07:01:28;;;;;;;52.88;37.40;;;9.00;99.90;;;;;;4986862;28;20069;-65
2021/04/21 07:04:24;;;;;;;51.38;36.90;;;8.90;99.90;;;;;;4998601;28;20114;-64
2021/04/21 07:07:02;;;;;;;53.33;36.80;;;8.80;99.90;;;;;;4982971;28;20037;-64
2021/04/21 07:09:37;;;;;;;61.10;38.45;;;8.70;99.90;;;;;;4987766;28;20048;-64
2021/04/21 07:12:25;;;;;;;59.85;38.72;;;8.70;99.90;;;;;;4986382;28;20062;-64
2021/04/21 07:15:19;;;;;;;49.75;35.08;;;8.70;99.90;;;;;;4987987;28;20579;-64
2021/04/21 07:17:45;;;;;;;;;;;8.80;99.90;;;;;;4984088;28;20493;-64
2021/04/21 07:20:16;;;;;;;84.57;58.70;;;8.90;99.90;;;;;;4987992;28;19910;-66
2021/04/21 07:22:50;;;;;;;61.97;42.95;;;8.80;99.90;;;;;;4995864;28;20038;-64
2021/04/21 07:25:19;;;;;;;56.22;40.55;;;8.70;99.90;;;;;;4981635;28;20030;-65
2021/04/21 07:27:50;;;;;;;61.83;40.30;;;8.70;99.90;;;;;;4985927;28;20562;-64
2021/04/21 07:30:33;;;;;;;57.53;37.25;;;8.60;99.90;;;;;;4974394;28;20553;-64
2021/04/21 07:33:10;;;;;;;55.33;39.38;;;8.50;99.90;;;;;;4980433;28;20042;-66
2021/04/21 07:35:37;;;;;;;51.67;37.83;;;8.60;99.90;;;;;;4986088;28;20080;-64
2021/04/21 07:38:21;;;;;;;57.17;38.88;;;8.70;99.90;;;;;;4986104;28;20074;-64
2021/04/21 07:40:57;;;;;;;58.03;40.45;;;8.80;99.90;;;;;;4985535;28;20046;-63
2021/04/21 07:43:23;;;;;;;61.05;41.58;;;8.90;99.90;;;;;;4996145;28;20583;-65
2021/04/21 07:45:52;;;;;;;68.50;42.80;;;8.80;99.90;;;;;;4987061;28;20161;-65
2021/04/21 07:48:34;;;;;;;60.65;40.53;;;8.90;99.90;;;;;;4992994;28;20049;-64
2021/04/21 07:51:24;;;;;;;58.75;39.67;;;8.90;99.90;;;;;;5002722;28;20030;-64
2021/04/21 07:54:03;;;;;;;62.90;39.35;;;9.00;99.90;;;;;;4996792;28;20058;-64
2021/04/21 07:56:59;;;;;;;62.72;41.90;;;9.10;99.90;;;;;;4971807;28;20043;-65
2021/04/21 07:59:33;;;;;;;58.33;39.53;;;9.20;99.90;;;;;;4993090;28;20035;-64
2021/04/21 08:02:18;;;;;;;60.90;40.47;;;9.40;99.90;;;;;;4998077;28;20026;-66
2021/04/21 08:04:55;;;;;;;61.65;40.85;;;9.50;99.90;;;;;;4991171;28;20057;-65
2021/04/21 08:07:54;;;;;;;55.33;38.85;;;9.50;99.90;;;;;;5010446;28;20041;-66
2021/04/21 08:10:48;;;;;;;65.22;42.65;;;9.60;99.90;;;;;;5008293;28;20026;-66
2021/04/21 08:13:36;;;;;;;57.92;37.65;;;9.60;99.90;;;;;;4987936;28;20121;-65
2021/04/21 08:16:30;;;;;;;57.83;39.95;;;9.50;99.90;;;;;;4991740;28;20557;-65
2021/04/21 08:19:19;;;;;;;65.43;42.25;;;9.60;99.90;;;;;;4982158;28;20414;-65
2021/04/21 08:22:17;;;;;;;61.13;40.83;;;9.60;99.90;;;;;;4999127;28;20088;-64
2021/04/21 08:24:45;;;;;;;60.58;44.15;;;9.60;99.90;;;;;;4972734;28;20100;-65
2021/04/21 08:27:19;;;;;;;62.72;44.47;;;9.60;99.90;;;;;;4986487;28;20023;-64
2021/04/21 08:29:57;;;;;;;61.05;41.13;;;9.60;99.90;;;;;;4987550;28;20081;-65
2021/04/21 08:32:29;;;;;;;57.33;39.28;;;9.70;99.90;;;;;;4990857;28;20039;-65
2021/04/21 08:35:06;;;;;;;59.25;40.45;;;9.70;99.90;;;;;;4982266;28;20042;-65
2021/04/21 08:37:32;;;;;;;61.15;38.67;;;9.70;99.90;;;;;;4986972;28;20041;-64
2021/04/21 08:40:03;;;;;;;58.45;39.17;;;9.80;99.90;;;;;;4992069;28;20133;-65
2021/04/21 08:43:03;;;;;;;55.95;38.83;;;10.00;99.90;;;;;;4991159;28;20057;-65
2021/04/21 08:45:42;;;;;;;58.05;37.13;;;10.00;99.90;;;;;;4986606;28;20097;-65
2021/04/21 08:48:23;;;;;;;59.80;40.55;;;10.20;99.90;;;;;;4990844;28;20030;-65
2021/04/21 08:50:49;;;;;;;50.97;36.40;;;10.30;99.90;;;;;;4989862;28;20050;-64
2021/04/21 08:53:30;;;;;;;54.17;37.63;;;10.60;99.90;;;;;;4996006;28;20039;-65
2021/04/21 08:56:16;;;;;;;54.53;37.83;;;10.90;99.90;;;;;;4993559;28;20027;-65
2021/04/21 08:58:56;;;;;;;53.92;37.88;;;11.00;99.90;;;;;;4987922;28;20118;-65
2021/04/21 09:01:31;;;;;;;50.20;36.47;;;11.20;99.90;;;;;;4983199;28;20038;-66
2021/04/21 09:04:09;;;;;;;53.83;38.78;;;11.50;99.90;;;;;;4993841;28;20038;-64
2021/04/21 09:07:07;;;;;;;56.47;40.40;;;11.50;99.90;;;;;;4997663;28;20064;-64
2021/04/21 09:09:48;;;;;;;54.63;35.67;;;11.80;99.90;;;;;;4989482;28;20084;-65
2021/04/21 09:12:25;;;;;;;54.28;36.92;;;12.00;99.90;;;;;;4986166;28;20039;-65
2021/04/21 09:14:54;;;;;;;51.47;37.30;;;12.50;99.90;;;;;;4991193;28;20490;-65
2021/04/21 09:17:21;;;;;;;50.00;35.85;;;12.70;99.90;;;;;;4991664;28;20042;-65
2021/04/21 09:20:11;;;;;;;45.35;34.70;;;13.30;99.90;;;;;;4998984;28;20170;-64
2021/04/21 09:23:14;;;;;;;45.80;33.20;;;13.90;99.90;;;;;;4999232;28;20116;-64
2021/04/21 09:25:55;;;;;;;47.65;33.00;;;14.50;99.90;;;;;;4976725;28;20785;-64
2021/04/21 09:28:37;;;;;;;39.83;31.67;;;14.40;99.90;;;;;;5006772;28;20034;-64
2021/04/21 09:31:18;;;;;;;41.25;33.25;;;15.00;99.90;;;;;;4998351;28;20177;-65
2021/04/21 09:33:47;;;;;;;42.72;33.50;;;14.80;99.90;;;;;;4999138;28;20034;-65
2021/04/21 09:36:36;;;;;;;41.47;31.63;;;15.70;99.90;;;;;;5005679;28;20225;-65
2021/04/21 09:39:30;;;;;;;41.22;29.83;;;16.50;99.90;;;;;;4992128;28;20034;-64
2021/04/21 09:42:08;;;;;;;38.42;31.48;;;16.30;99.90;;;;;;4994488;28;20022;-66
2021/04/21 09:44:47;;;;;;;33.42;28.35;;;16.70;99.90;;;;;;4994880;28;20034;-65
2021/04/21 09:47:21;;;;;;;32.88;26.40;;;17.70;99.90;;;;;;4989301;28;20018;-65
2021/04/21 09:49:48;;;;;;;32.38;26.50;;;18.30;97.80;;;;;;4989511;28;20742;-65
2021/04/21 09:52:39;;;;;;;41.03;29.77;;;18.70;97.20;;;;;;4987699;28;20129;-64
2021/04/21 09:55:26;;;;;;;33.67;28.25;;;18.60;97.60;;;;;;4996227;28;20041;-67
2021/04/21 09:57:55;;;;;;;70.55;47.53;;;18.00;96.40;;;;;;4969440;28;20034;-68
2021/04/21 10:00:40;;;;;;;44.90;35.80;;;17.50;98.40;;;;;;4988323;28;20034;-64
2021/04/21 10:03:21;;;;;;;40.17;30.08;;;17.00;98.80;;;;;;4994463;28;20039;-66
2021/04/21 10:06:02;;;;;;;46.22;33.45;;;16.80;99.60;;;;;;5002170;28;20039;-66
2021/04/21 10:08:34;;;;;;;38.33;32.22;;;16.80;99.20;;;;;;4929596;28;20051;-65
2021/04/21 10:11:11;;;;;;;42.47;33.40;;;17.00;99.90;;;;;;4975277;28;20049;-64
2021/04/21 10:13:57;;;;;;;44.78;32.80;;;16.90;98.60;;;;;;4985032;28;20468;-67
2021/04/21 10:16:43;;;;;;;46.08;33.95;;;16.80;99.90;;;;;;4989285;28;20555;-65
2021/04/21 10:19:17;;;;;;;50.42;37.58;;;17.10;99.90;;;;;;5001373;28;20038;-64
2021/04/21 10:22:04;;;;;;;43.97;34.75;;;17.20;99.90;;;;;;4982318;28;20043;-66
2021/04/21 10:24:30;;;;;;;41.80;34.17;;;17.30;99.90;;;;;;4995538;28;20037;-66
2021/04/21 10:27:25;;;;;;;44.65;33.47;;;17.50;99.80;;;;;;4989764;28;20528;-66
2021/04/21 10:30:12;;;;;;;50.60;38.40;;;17.40;99.30;;;;;;5001727;28;20038;-64
2021/04/21 10:32:44;;;;;;;51.70;37.03;;;17.00;99.80;;;;;;4990283;28;20087;-64
2021/04/21 10:35:13;;;;;;;48.55;36.53;;;17.10;99.70;;;;;;4985334;28;20478;-65
2021/04/21 10:37:41;;;;;;;45.42;35.60;;;16.80;98.40;;;;;;4988554;28;20514;-67
2021/04/21 10:40:12;;;;;;;48.38;37.85;;;16.70;99.60;;;;;;4988944;28;20126;-65
2021/04/21 10:42:53;;;;;;;50.35;39.08;;;16.70;99.90;;;;;;4988648;28;20042;-65
2021/04/21 10:45:30;;;;;;;49.33;37.63;;;16.90;99.60;;;;;;4983670;28;20027;-65
2021/04/21 10:48:02;;;;;;;50.53;37.95;;;17.00;99.40;;;;;;4986660;28;20121;-65
2021/04/21 10:50:54;;;;;;;53.05;41.90;;;17.20;98.50;;;;;;4999133;28;20025;-65
2021/04/21 10:53:48;;;;;;;55.13;42.25;;;16.80;99.70;;;;;;4992967;28;20172;-64
2021/04/21 10:56:24;;;;;;;63.63;43.72;;;16.80;99.90;;;;;;4982547;28;20068;-63
2021/04/21 10:59:03;;;;;;;64.38;46.42;;;16.60;99.90;;;;;;5001890;28;20035;-64
2021/04/21 11:01:39;;;;;;;89.63;61.30;;;16.80;99.90;;;;;;4997082;28;20061;-64
2021/04/21 11:04:52;;;;;;;65.97;43.75;;;17.00;99.90;;;;;;4998560;28;20035;-65
2021/04/21 11:08:02;;;;;;;54.10;42.10;;;17.70;99.40;;;;;;4990512;28;20113;-66
2021/04/21 11:10:52;;;;;;;52.97;41.38;;;18.20;98.50;;;;;;4958507;28;20050;-67
2021/04/21 11:13:55;;;;;;;66.97;44.53;;;18.30;97.80;;;;;;4954389;28;20038;-66
2021/04/21 11:16:21;;;;;;;56.38;40.55;;;18.30;97.60;;;;;;4996854;28;20038;-65
2021/04/21 11:19:19;;;;;;;53.13;40.45;;;18.00;96.80;;;;;;4995443;28;20015;-64
2021/04/21 11:25:33;;;;;;;53.95;39.38;;;17.90;96.60;;;;;;4987054;28;20499;-64
2021/04/21 11:28:02;;;;;;;52.13;39.35;;;17.90;96.80;;;;;;4986831;28;20049;-64
2021/04/21 11:30:36;;;;;;;53.83;38.40;;;17.90;97.30;;;;;;4989155;28;20037;-65
2021/04/21 11:33:06;;;;;;;51.65;41.10;;;18.20;97.00;;;;;;4996263;28;20113;-63
2021/04/21 11:35:36;;;;;;;54.35;38.58;;;18.20;96.00;;;;;;4998953;28;20034;-63
2021/04/21 11:38:28;;;;;;;52.90;39.80;;;18.30;96.20;;;;;;4993509;28;20115;-63
2021/04/21 11:41:37;;;;;;;53.58;39.60;;;18.30;96.20;;;;;;5000196;28;20173;-63
2021/04/21 11:44:23;;;;;;;50.80;40.95;;;17.70;96.30;;;;;;4986134;28;20027;-64
2021/04/21 11:47:08;;;;;;;53.58;38.45;;;17.80;96.40;;;;;;4983828;28;20042;-63
2021/04/21 11:50:01;;;;;;;51.40;38.22;;;17.80;96.20;;;;;;4996429;28;20050;-64
2021/04/21 11:52:53;;;;;;;54.37;38.13;;;18.00;96.60;;;;;;4992001;28;20034;-64
2021/04/21 11:55:55;;;;;;;59.90;38.45;;;18.10;96.50;;;;;;4994159;28;20287;-64
2021/04/21 11:58:28;;;;;;;64.78;39.22;;;18.20;95.00;;;;;;4987083;28;20117;-64
2021/04/21 12:00:55;;;;;;;50.83;38.85;;;18.30;95.90;;;;;;4986405;28;20046;-65
2021/04/21 12:03:48;;;;;;;62.35;38.30;;;18.50;96.10;;;;;;4989472;28;20778;-65
2021/04/21 12:06:19;;;;;;;56.05;39.10;;;18.20;95.10;;;;;;4984057;28;20035;-64
2021/04/21 12:08:53;;;;;;;54.95;38.08;;;18.50;96.30;;;;;;5009009;28;20026;-64
2021/04/21 12:11:37;;;;;;;52.47;39.17;;;18.60;94.60;;;;;;4987391;28;20109;-64
2021/04/21 12:14:10;;;;;;;;;;;18.60;94.60;;;;;;4984365;28;20034;-64
2021/04/21 12:16:39;;;;;;;48.30;37.72;;;18.80;95.00;;;;;;5003906;28;19960;-64
2021/04/21 12:19:17;;;;;;;42.58;34.85;;;19.20;93.70;;;;;;4985673;28;20058;-64
2021/04/21 12:21:45;;;;;;;50.17;32.03;;;19.40;92.20;;;;;;4988937;28;20206;-64
2021/04/21 12:24:15;;;;;;;47.00;32.45;;;19.30;91.20;;;;;;4993752;28;20072;-63
2021/04/21 12:26:45;;;;;;;39.45;28.80;;;19.60;90.30;;;;;;4985404;28;20023;-65
2021/04/21 12:29:22;;;;;;;38.72;28.65;;;19.80;86.20;;;;;;5001200;28;20097;-64
2021/04/21 12:31:48;;;;;;;33.50;28.17;;;20.00;79.60;;;;;;4987433;28;20464;-64
2021/04/21 12:34:19;;;;;;;35.97;27.15;;;19.80;72.30;;;;;;4997265;28;20121;-64
2021/04/21 12:36:48;;;;;;;34.55;26.70;;;19.40;73.30;;;;;;4991730;28;20030;-64
2021/04/21 12:39:21;;;;;;;34.25;25.65;;;19.60;68.70;;;;;;4989776;28;20101;-65
2021/04/21 12:41:53;;;;;;;35.83;25.77;;;19.80;68.20;;;;;;4988677;28;20126;-64
2021/04/21 12:44:31;;;;;;;29.73;24.63;;;19.90;66.80;;;;;;4992787;28;20559;-64
2021/04/21 12:47:22;;;;;;;38.20;27.48;;;20.10;66.80;;;;;;4970559;28;20546;-64
2021/04/21 12:50:01;;;;;;;34.38;26.38;;;20.10;65.00;;;;;;4995268;28;20030;-63
2021/04/21 12:52:35;;;;;;;41.30;27.67;;;19.80;67.50;;;;;;4967081;28;20045;-64
2021/04/21 12:55:10;;;;;;;38.97;26.98;;;19.90;69.30;;;;;;4989500;28;20042;-63
2021/04/21 12:57:52;;;;;;;38.45;27.25;;;19.40;69.10;;;;;;4986988;28;20325;-65
2021/04/21 13:00:29;;;;;;;36.47;28.60;;;19.40;69.00;;;;;;4988214;28;20026;-63
2021/04/21 13:02:58;;;;;;;33.45;22.63;;;19.30;67.30;;;;;;4990598;28;20065;-64
2021/04/21 13:05:44;;;;;;;25.65;17.08;;;19.20;64.40;;;;;;4992004;28;20424;-65
2021/04/21 13:08:26;;;;;;;23.38;15.68;;;18.50;62.70;;;;;;4994117;28;20033;-64
2021/04/21 13:10:58;;;;;;;23.38;16.45;;;18.20;63.30;;;;;;4991499;28;20118;-65
2021/04/21 13:13:33;;;;;;;26.63;14.82;;;17.80;63.60;;;;;;4992310;28;20038;-64
2021/04/21 13:16:01;;;;;;;22.17;15.73;;;17.70;63.20;;;;;;4986982;28;20070;-65
2021/04/21 13:18:45;;;;;;;22.10;16.55;;;17.50;65.20;;;;;;4996606;28;20046;-65
2021/04/21 13:21:11;;;;;;;20.80;15.20;;;17.50;63.70;;;;;;4991789;28;20089;-64
2021/04/21 13:23:51;;;;;;;23.23;16.85;;;17.50;63.00;;;;;;4998753;28;20072;-65
2021/04/21 13:26:25;;;;;;;25.33;16.50;;;17.70;62.70;;;;;;4978982;28;20068;-64
2021/04/21 13:29:01;;;;;;;30.20;18.05;;;17.90;60.00;;;;;;5002648;28;20057;-64
2021/04/21 13:31:32;;;;;;;23.95;17.83;;;18.10;60.50;;;;;;4984360;28;20038;-65
2021/04/21 13:34:04;;;;;;;24.27;16.92;;;18.30;60.40;;;;;;4977126;28;20488;-64
2021/04/21 13:36:55;;;;;;;24.08;17.50;;;18.30;59.70;;;;;;4995780;28;20061;-64
2021/04/21 13:39:41;;;;;;;22.63;16.10;;;18.20;60.80;;;;;;4987794;28;20026;-65
2021/04/21 13:42:07;;;;;;;26.25;17.73;;;18.20;62.90;;;;;;4989436;28;20034;-64
2021/04/21 13:44:38;;;;;;;34.20;18.50;;;18.30;63.20;;;;;;4984734;28;20257;-64
2021/04/21 13:47:19;;;;;;;27.95;19.70;;;18.40;63.00;;;;;;4988168;28;20066;-63
2021/04/21 13:49:50;;;;;;;29.17;22.73;;;18.20;61.40;;;;;;4986900;28;20065;-64
2021/04/21 13:52:21;;;;;;;28.73;21.60;;;18.40;61.00;;;;;;4987752;28;20133;-64